createdAt,value
2023-01-07T00:01:16.997Z,11.35
2023-01-07T00:05:10.241Z,13.48
2023-01-07T00:09:05.034Z,12.00
2023-01-07T00:12:57.584Z,11.75
2023-01-07T00:16:50.354Z,14.98
2023-01-07T00:20:42.867Z,13.10
2023-01-07T00:24:35.572Z,10.50
2023-01-07T00:28:28.203Z,10.77
2023-01-07T00:32:21.178Z,9.90
2023-01-07T00:36:13.999Z,8.85
2023-01-07T00:40:07.402Z,9.70
2023-01-07T00:44:00.202Z,8.73
2023-01-07T00:47:55.405Z,9.23
2023-01-07T00:51:48.105Z,9.38
2023-01-07T00:55:40.825Z,12.10
2023-01-07T00:59:33.603Z,13.00
2023-01-07T01:03:26.886Z,12.30
2023-01-07T01:07:19.850Z,9.07
2023-01-07T01:11:14.428Z,10.40
2023-01-07T01:15:10.828Z,10.68
2023-01-07T01:19:03.585Z,9.73
2023-01-07T01:22:56.374Z,9.85
2023-01-07T01:26:48.828Z,9.55
2023-01-07T01:30:41.601Z,10.10
2023-01-07T01:34:34.245Z,9.80
2023-01-07T01:38:26.951Z,10.35
2023-01-07T01:42:24.291Z,9.60
2023-01-07T01:46:29.206Z,10.20
2023-01-07T01:50:33.259Z,10.38
2023-01-07T01:54:26.587Z,9.93
2023-01-07T01:58:24.533Z,10.23
2023-01-07T02:02:23.022Z,10.63
2023-01-07T02:06:26.417Z,11.13
2023-01-07T02:10:23.166Z,10.77
2023-01-07T02:14:18.827Z,11.00
2023-01-07T02:18:30.675Z,10.82
2023-01-07T02:22:54.331Z,11.07
2023-01-07T02:27:02.359Z,10.77
2023-01-07T02:31:14.972Z,12.23
2023-01-07T02:35:36.825Z,11.70
2023-01-07T02:39:44.454Z,12.85
2023-01-07T02:43:53.139Z,11.10
2023-01-07T02:48:02.447Z,12.73
2023-01-07T02:51:55.106Z,12.02
2023-01-07T02:56:06.410Z,11.48
2023-01-07T03:00:27.967Z,11.32
2023-01-07T03:04:47.794Z,11.35
2023-01-07T03:09:12.051Z,11.40
2023-01-07T03:13:08.283Z,11.85
2023-01-07T03:17:05.295Z,11.52
2023-01-07T03:21:02.151Z,11.95
2023-01-07T03:24:58.146Z,12.07
2023-01-07T03:28:52.854Z,11.48
2023-01-07T03:32:58.032Z,11.93
2023-01-07T03:36:57.611Z,12.65
2023-01-07T03:40:51.424Z,12.98
2023-01-07T03:44:44.424Z,12.82
2023-01-07T03:48:36.872Z,12.23
2023-01-07T03:52:29.911Z,11.70
2023-01-07T03:56:22.621Z,12.10
2023-01-07T04:00:15.982Z,11.95
2023-01-07T04:04:08.782Z,11.85
2023-01-07T04:08:01.424Z,11.95
2023-01-07T04:11:54.116Z,13.15
2023-01-07T04:15:47.079Z,13.23
2023-01-07T04:19:39.991Z,12.82
2023-01-07T04:23:32.463Z,12.00
2023-01-07T04:27:25.075Z,12.02
2023-01-07T04:31:18.058Z,11.75
2023-01-07T04:35:10.764Z,11.18
2023-01-07T04:39:03.609Z,11.98
2023-01-07T04:42:56.318Z,12.05
2023-01-07T04:46:48.898Z,12.15
2023-01-07T04:50:41.545Z,12.07
2023-01-07T04:54:34.093Z,11.90
2023-01-07T04:58:26.924Z,11.65
2023-01-07T05:02:19.545Z,11.68
2023-01-07T05:06:12.312Z,13.10
2023-01-07T05:10:05.592Z,13.50
2023-01-07T05:14:00.860Z,12.30
2023-01-07T05:17:53.718Z,12.35
2023-01-07T05:21:46.364Z,13.00
2023-01-07T05:25:38.914Z,13.50
2023-01-07T05:29:31.891Z,12.77
2023-01-07T05:33:24.636Z,13.73
2023-01-07T05:37:17.477Z,13.27
2023-01-07T05:41:10.307Z,12.07
2023-01-07T05:45:02.816Z,12.80
2023-01-07T05:48:55.712Z,13.18
2023-01-07T05:52:48.187Z,12.93
2023-01-07T05:56:41.071Z,12.18
2023-01-07T06:00:35.181Z,12.75
2023-01-07T06:04:28.685Z,13.00
2023-01-07T06:08:21.418Z,12.65
2023-01-07T06:12:13.959Z,12.88
2023-01-07T06:16:09.411Z,13.23
2023-01-07T06:20:02.398Z,14.32
2023-01-07T06:23:56.190Z,14.27
2023-01-07T06:27:48.987Z,16.63
2023-01-07T06:31:41.872Z,15.10
2023-01-07T06:35:34.476Z,14.95
2023-01-07T06:39:27.111Z,13.88
2023-01-07T06:43:19.848Z,13.65
2023-01-07T06:47:12.655Z,13.30
2023-01-07T06:51:05.449Z,14.43
2023-01-07T06:54:58.136Z,15.35
2023-01-07T06:58:50.798Z,17.95
2023-01-07T07:02:43.404Z,19.00
2023-01-07T07:06:36.123Z,14.57
2023-01-07T07:10:28.903Z,14.98
2023-01-07T07:14:21.799Z,15.80
2023-01-07T07:18:14.702Z,15.43
2023-01-07T07:22:07.294Z,14.23
2023-01-07T07:25:59.726Z,14.85
2023-01-07T07:29:52.219Z,17.88
2023-01-07T07:33:45.059Z,17.08
2023-01-07T07:37:38.356Z,18.70
2023-01-07T07:41:31.643Z,18.30
2023-01-07T07:45:24.540Z,17.55
2023-01-07T07:49:17.197Z,21.40
2023-01-07T07:53:10.658Z,19.85
2023-01-07T07:57:04.087Z,23.33
2023-01-07T08:00:56.836Z,25.23
2023-01-07T08:04:49.700Z,29.67
2023-01-07T08:08:42.910Z,33.08
2023-01-07T08:12:39.633Z,32.72
2023-01-07T08:16:32.337Z,31.90
2023-01-07T08:20:25.179Z,27.45
2023-01-07T08:24:18.036Z,22.48
2023-01-07T08:28:11.756Z,23.02
2023-01-07T08:32:04.588Z,19.27
2023-01-07T08:35:57.207Z,18.85
2023-01-07T08:39:50.166Z,17.48
2023-01-07T08:43:45.023Z,14.77
2023-01-07T08:47:37.842Z,15.65
2023-01-07T08:51:30.817Z,16.80
2023-01-07T08:55:24.361Z,18.88
2023-01-07T08:59:17.157Z,18.05
2023-01-07T09:03:12.267Z,16.10
2023-01-07T09:07:04.737Z,17.20
2023-01-07T09:10:57.525Z,16.52
2023-01-07T09:14:50.204Z,16.85
2023-01-07T09:18:42.847Z,15.20
2023-01-07T09:22:37.262Z,15.90
2023-01-07T09:26:29.950Z,16.15
2023-01-07T09:30:22.522Z,16.65
2023-01-07T09:34:15.266Z,15.45
2023-01-07T09:38:08.059Z,15.45
2023-01-07T09:42:33.918Z,16.17
2023-01-07T09:46:27.463Z,17.02
2023-01-07T09:50:35.627Z,17.67
2023-01-07T09:54:32.929Z,19.50
2023-01-07T09:58:25.862Z,19.73
2023-01-07T10:02:27.728Z,15.80
2023-01-07T10:06:43.112Z,13.93
2023-01-07T10:10:48.876Z,15.68
2023-01-07T10:15:09.412Z,15.38
2023-01-07T10:19:14.196Z,14.65
2023-01-07T10:23:19.800Z,15.23
2023-01-07T10:27:15.842Z,14.88
2023-01-07T10:31:24.476Z,14.85
2023-01-07T10:35:21.458Z,13.98
2023-01-07T10:39:52.602Z,14.77
2023-01-07T10:44:23.429Z,13.50
2023-01-07T10:48:41.608Z,13.38
2023-01-07T10:56:45.513Z,12.85
2023-01-07T11:00:39.577Z,13.07
2023-01-07T11:04:32.168Z,14.10
2023-01-07T11:08:32.790Z,13.60
2023-01-07T11:12:54.189Z,13.18
2023-01-07T11:16:51.841Z,13.85
2023-01-07T11:20:53.785Z,14.15
2023-01-07T11:24:46.569Z,12.55
2023-01-07T11:28:58.105Z,12.23
2023-01-07T11:33:06.018Z,12.60
2023-01-07T11:41:00.673Z,11.75
2023-01-07T11:45:18.076Z,12.63
2023-01-07T11:49:28.131Z,13.07
2023-01-07T11:53:30.207Z,12.15
2023-01-07T11:57:25.708Z,12.65
2023-01-07T12:01:21.125Z,12.65
2023-01-07T12:05:21.903Z,12.63
2023-01-07T12:09:25.869Z,12.88
2023-01-07T12:13:23.658Z,11.75
2023-01-07T12:17:20.650Z,11.88
2023-01-07T12:21:32.706Z,10.75
2023-01-07T12:25:49.257Z,10.65
2023-01-07T12:30:02.075Z,10.05
2023-01-07T12:34:27.976Z,9.50
2023-01-07T12:38:45.860Z,9.65
2023-01-07T12:42:43.651Z,10.23
2023-01-07T12:47:32.108Z,8.75
2023-01-07T12:51:21.019Z,9.88
2023-01-07T12:55:17.542Z,10.73
2023-01-07T12:59:47.198Z,11.00
2023-01-07T13:04:21.673Z,11.05
2023-01-07T13:08:37.832Z,10.90
2023-01-07T13:12:45.356Z,10.68
2023-01-07T13:16:38.265Z,11.10
2023-01-07T13:20:44.008Z,10.30
2023-01-07T13:24:54.835Z,11.07
2023-01-07T13:28:52.583Z,10.98
2023-01-07T13:32:59.521Z,10.23
2023-01-07T13:37:35.033Z,9.73
2023-01-07T13:41:38.948Z,10.88
2023-01-07T13:45:34.604Z,10.13
2023-01-07T13:49:30.072Z,10.02
2023-01-07T13:53:26.501Z,10.23
2023-01-07T13:57:31.503Z,10.32
2023-01-07T14:01:26.969Z,10.35
2023-01-07T14:05:19.733Z,10.35
2023-01-07T14:09:20.022Z,9.63
2023-01-07T14:13:34.061Z,9.65
2023-01-07T14:17:37.068Z,9.35
2023-01-07T14:21:57.286Z,9.23
2023-01-07T14:26:27.524Z,8.38
2023-01-07T14:30:51.622Z,10.98
2023-01-07T14:34:54.759Z,9.85
2023-01-07T14:38:59.008Z,9.68
2023-01-07T14:42:59.197Z,13.40
2023-01-07T14:46:52.708Z,11.55
2023-01-07T14:51:09.774Z,13.68
2023-01-07T14:55:44.226Z,12.47
2023-01-07T15:00:00.751Z,11.50
2023-01-07T15:04:02.463Z,11.63
2023-01-07T15:08:20.596Z,10.20
2023-01-07T15:12:40.056Z,9.52
2023-01-07T15:16:35.824Z,13.40
2023-01-07T15:20:46.518Z,13.63
2023-01-07T15:24:45.091Z,12.68
2023-01-07T15:29:05.473Z,11.80
2023-01-07T15:33:26.015Z,9.20
2023-01-07T15:37:19.407Z,9.63
2023-01-07T15:41:30.801Z,10.77
2023-01-07T15:45:27.062Z,11.27
2023-01-07T15:49:26.157Z,11.38
2023-01-07T15:53:25.449Z,11.65
2023-01-07T15:57:27.500Z,11.88
2023-01-07T16:01:23.820Z,12.63
2023-01-07T16:05:19.681Z,13.27
2023-01-07T16:09:21.767Z,13.05
2023-01-07T16:13:18.513Z,14.68
2023-01-07T16:17:15.899Z,15.18
2023-01-07T16:21:14.636Z,14.20
2023-01-07T16:25:16.443Z,15.43
2023-01-07T16:29:16.229Z,13.30
2023-01-07T16:33:16.145Z,13.32
2023-01-07T16:37:16.107Z,12.98
2023-01-07T16:41:19.343Z,12.52
2023-01-07T16:45:25.781Z,15.13
2023-01-07T16:49:26.494Z,14.45
2023-01-07T16:53:33.556Z,18.10
2023-01-07T16:57:40.331Z,27.92
2023-01-07T17:01:35.593Z,25.58
2023-01-07T17:05:31.094Z,24.30
2023-01-07T17:09:41.849Z,24.92
2023-01-07T17:13:38.249Z,22.45
2023-01-07T17:17:34.473Z,28.98
2023-01-07T17:21:42.690Z,26.70
2023-01-07T17:25:35.674Z,24.48
2023-01-07T17:29:36.071Z,21.90
2023-01-07T17:33:28.955Z,24.42
2023-01-07T17:37:22.168Z,23.52
2023-01-07T17:41:36.732Z,22.25
2023-01-07T17:45:29.694Z,25.38
2023-01-07T17:49:22.553Z,23.85
2023-01-07T17:53:30.910Z,23.98
2023-01-07T17:57:23.671Z,24.27
2023-01-07T18:01:22.883Z,23.52
2023-01-07T18:05:18.796Z,25.00
2023-01-07T18:09:13.778Z,27.23
2023-01-07T18:13:06.622Z,25.77
2023-01-07T18:16:59.584Z,25.75
2023-01-07T18:20:54.646Z,26.25
2023-01-07T18:24:48.690Z,27.05
2023-01-07T18:28:42.045Z,27.25
2023-01-07T18:32:34.709Z,24.95
2023-01-07T18:36:27.317Z,26.45
2023-01-07T18:40:20.675Z,33.05
2023-01-07T18:44:13.562Z,28.75
2023-01-07T18:48:06.500Z,27.73
2023-01-07T18:51:59.247Z,27.90
2023-01-07T18:55:59.531Z,27.42
2023-01-07T18:59:52.450Z,26.98
2023-01-07T19:03:45.228Z,27.88
2023-01-07T19:07:38.481Z,28.33
2023-01-07T19:11:31.786Z,31.50
2023-01-07T19:15:25.721Z,29.45
2023-01-07T19:19:18.352Z,26.85
2023-01-07T19:23:10.977Z,32.95
2023-01-07T19:27:03.963Z,28.35
2023-01-07T19:30:56.711Z,26.98
2023-01-07T19:34:52.460Z,24.50
2023-01-07T19:38:49.312Z,26.13
2023-01-07T19:42:42.206Z,26.27
2023-01-07T19:46:37.732Z,26.08
2023-01-07T19:50:30.585Z,25.98
2023-01-07T19:54:23.254Z,25.02
2023-01-07T19:58:16.712Z,26.80
2023-01-07T20:02:12.855Z,25.73
2023-01-07T20:06:11.601Z,25.33
2023-01-07T20:10:04.693Z,26.00
2023-01-07T20:13:57.328Z,25.80
2023-01-07T20:17:50.017Z,27.30
2023-01-07T20:21:43.667Z,25.65
2023-01-07T20:25:36.215Z,26.63
2023-01-07T20:29:29.177Z,24.92
2023-01-07T20:33:21.880Z,24.42
2023-01-07T20:37:14.414Z,25.85
2023-01-07T20:41:11.471Z,26.83
2023-01-07T20:45:04.612Z,26.90
2023-01-07T20:48:57.662Z,26.00
2023-01-07T20:52:50.463Z,25.65
2023-01-07T20:56:43.123Z,25.10
2023-01-07T21:00:36.247Z,25.85
2023-01-07T21:04:29.241Z,24.70
2023-01-07T21:08:21.930Z,27.48
2023-01-07T21:12:15.099Z,25.35
2023-01-07T21:16:08.361Z,25.27
2023-01-07T21:20:01.635Z,25.08
2023-01-07T21:23:54.634Z,24.95
2023-01-07T21:27:48.714Z,25.40
2023-01-07T21:31:41.816Z,25.08
2023-01-07T21:35:34.622Z,24.67
2023-01-07T21:39:27.341Z,23.08
2023-01-07T21:43:20.338Z,23.27
2023-01-07T21:47:12.857Z,23.98
2023-01-07T21:51:12.829Z,25.08
2023-01-07T21:55:05.895Z,24.30
2023-01-07T21:58:59.518Z,23.92
2023-01-07T22:02:52.176Z,25.65
2023-01-07T22:06:45.046Z,24.02
2023-01-07T22:10:37.750Z,23.40
2023-01-07T22:14:30.337Z,24.67
2023-01-07T22:18:23.278Z,26.65
2023-01-07T22:22:16.873Z,26.42
2023-01-07T22:26:10.393Z,24.67
2023-01-07T22:30:03.692Z,26.30
2023-01-07T22:33:57.691Z,24.15
2023-01-07T22:37:51.378Z,26.38
2023-01-07T22:41:44.283Z,24.67
2023-01-07T22:45:40.733Z,24.30
2023-01-07T22:49:33.739Z,23.45
2023-01-07T22:53:29.272Z,24.50
2023-01-07T22:57:22.157Z,22.92
2023-01-07T23:01:16.906Z,23.55
2023-01-07T23:05:10.101Z,22.75
2023-01-07T23:09:03.380Z,23.77
2023-01-07T23:12:55.921Z,23.00
2023-01-07T23:16:49.683Z,23.13
2023-01-07T23:20:43.721Z,21.67
2023-01-07T23:24:36.624Z,24.15
2023-01-07T23:28:29.361Z,24.65
2023-01-07T23:32:22.239Z,25.00
2023-01-07T23:36:15.181Z,27.45
2023-01-07T23:40:09.269Z,24.00
2023-01-07T23:44:02.217Z,21.83
2023-01-07T23:47:55.072Z,22.50
2023-01-07T23:51:47.705Z,21.85
2023-01-07T23:55:40.432Z,22.40
2023-01-07T23:59:33.304Z,25.40
